METAR Data

Data at: 0351 UTC 20 Oct 2018

METAR for:KLAX (Los Angeles Intl, CA, US)
Text:KLAX 200253Z 25005KT 10SM CLR 22/14 A2995 RMK AO2 SLP139 T02170139 53006 $
Temperature: 21.7°C ( 71°F)
Dewpoint: 13.9°C ( 57°F) [RH = 61%]
Pressure (altimeter):29.95 inches Hg (1014.3 mb) [Sea level pressure: 1013.9 mb]
Winds:from the WSW (250 degrees) at 6 MPH (5 knots; 2.6 m/s)
Visibility:10 or more sm (16+ km)
Ceiling:at least 12,000 feet AGL
Clouds:sky clear below 12,000 feet AGL
QC Flag:SOME DATA ABOVE MAY BE INACCURATE!!!"$" is an indication the sensor requires maintenance.